sensor_id;sensor_type;location;lat;lon;timestamp;temperature;humidity
11055;DHT22;5580;50.106;8.702;2023-07-22T00:00:10;18.80;99.90
11055;DHT22;5580;50.106;8.702;2023-07-22T00:02:40;18.70;99.90
11055;DHT22;5580;50.106;8.702;2023-07-22T00:05:07;18.60;99.90
11055;DHT22;5580;50.106;8.702;2023-07-22T00:07:33;18.60;99.90
11055;DHT22;5580;50.106;8.702;2023-07-22T00:09:59;18.60;99.90
11055;DHT22;5580;50.106;8.702;2023-07-22T00:12:25;18.60;99.90
11055;DHT22;5580;50.106;8.702;2023-07-22T00:14:51;18.70;99.90
11055;DHT22;5580;50.106;8.702;2023-07-22T00:17:18;18.70;99.90
11055;DHT22;5580;50.106;8.702;2023-07-22T00:19:43;18.70;99.90
11055;DHT22;5580;50.106;8.702;2023-07-22T00:22:09;18.70;99.90
11055;DHT22;5580;50.106;8.702;2023-07-22T00:24:34;18.70;99.90
11055;DHT22;5580;50.106;8.702;2023-07-22T00:27:00;18.60;99.90
11055;DHT22;5580;50.106;8.702;2023-07-22T00:29:26;18.60;99.90
11055;DHT22;5580;50.106;8.702;2023-07-22T00:31:51;18.60;99.90
11055;DHT22;5580;50.106;8.702;2023-07-22T00:34:17;18.60;99.90
11055;DHT22;5580;50.106;8.702;2023-07-22T00:36:42;18.60;99.90
11055;DHT22;5580;50.106;8.702;2023-07-22T00:39:09;18.60;99.90
11055;DHT22;5580;50.106;8.702;2023-07-22T00:41:35;18.60;99.90
11055;DHT22;5580;50.106;8.702;2023-07-22T00:44:00;18.50;99.90
11055;DHT22;5580;50.106;8.702;2023-07-22T00:46:26;18.50;99.90
11055;DHT22;5580;50.106;8.702;2023-07-22T00:48:51;18.50;99.90
11055;DHT22;5580;50.106;8.702;2023-07-22T00:51:18;18.50;99.90
11055;DHT22;5580;50.106;8.702;2023-07-22T00:53:44;18.40;99.90
11055;DHT22;5580;50.106;8.702;2023-07-22T00:56:10;18.30;99.90
11055;DHT22;5580;50.106;8.702;2023-07-22T00:58:35;18.40;99.90
11055;DHT22;5580;50.106;8.702;2023-07-22T01:01:01;18.40;99.90
11055;DHT22;5580;50.106;8.702;2023-07-22T01:03:26;18.40;99.90
11055;DHT22;5580;50.106;8.702;2023-07-22T01:05:53;18.40;99.90
11055;DHT22;5580;50.106;8.702;2023-07-22T01:08:20;18.30;99.90
11055;DHT22;5580;50.106;8.702;2023-07-22T01:10:46;18.40;99.90
11055;DHT22;5580;50.106;8.702;2023-07-22T01:13:11;18.30;99.90
11055;DHT22;5580;50.106;8.702;2023-07-22T01:15:37;18.30;99.90
11055;DHT22;5580;50.106;8.702;2023-07-22T01:18:03;18.20;99.90
11055;DHT22;5580;50.106;8.702;2023-07-22T01:20:29;18.20;99.90
11055;DHT22;5580;50.106;8.702;2023-07-22T01:22:55;18.20;99.90
11055;DHT22;5580;50.106;8.702;2023-07-22T01:25:21;18.20;99.90
11055;DHT22;5580;50.106;8.702;2023-07-22T01:27:48;18.20;99.90
11055;DHT22;5580;50.106;8.702;2023-07-22T01:30:14;18.30;99.90
11055;DHT22;5580;50.106;8.702;2023-07-22T01:32:40;18.30;99.90
11055;DHT22;5580;50.106;8.702;2023-07-22T01:35:06;18.30;99.90
11055;DHT22;5580;50.106;8.702;2023-07-22T01:37:33;18.30;99.90
11055;DHT22;5580;50.106;8.702;2023-07-22T01:39:59;18.30;99.90
11055;DHT22;5580;50.106;8.702;2023-07-22T01:42:24;18.30;99.90
11055;DHT22;5580;50.106;8.702;2023-07-22T01:44:50;18.30;99.90
11055;DHT22;5580;50.106;8.702;2023-07-22T01:47:16;18.30;99.90
11055;DHT22;5580;50.106;8.702;2023-07-22T01:49:41;18.30;99.90
11055;DHT22;5580;50.106;8.702;2023-07-22T01:52:07;18.30;99.90
11055;DHT22;5580;50.106;8.702;2023-07-22T01:54:33;18.30;99.90
11055;DHT22;5580;50.106;8.702;2023-07-22T01:56:58;18.30;99.90
11055;DHT22;5580;50.106;8.702;2023-07-22T01:59:25;18.20;99.90
11055;DHT22;5580;50.106;8.702;2023-07-22T02:01:50;18.20;99.90
11055;DHT22;5580;50.106;8.702;2023-07-22T02:04:17;18.20;99.90
11055;DHT22;5580;50.106;8.702;2023-07-22T02:06:42;18.20;99.90
11055;DHT22;5580;50.106;8.702;2023-07-22T02:09:08;18.10;99.90
11055;DHT22;5580;50.106;8.702;2023-07-22T02:11:37;18.00;99.90
11055;DHT22;5580;50.106;8.702;2023-07-22T02:14:02;18.10;99.90
11055;DHT22;5580;50.106;8.702;2023-07-22T02:16:35;18.00;99.90
11055;DHT22;5580;50.106;8.702;2023-07-22T02:19:02;18.00;99.90
11055;DHT22;5580;50.106;8.702;2023-07-22T02:21:28;18.00;99.90
11055;DHT22;5580;50.106;8.702;2023-07-22T02:23:54;18.00;99.90
11055;DHT22;5580;50.106;8.702;2023-07-22T02:26:20;18.00;99.90
11055;DHT22;5580;50.106;8.702;2023-07-22T02:28:45;18.00;99.90
11055;DHT22;5580;50.106;8.702;2023-07-22T02:31:12;17.90;99.90
11055;DHT22;5580;50.106;8.702;2023-07-22T02:33:38;17.90;99.90
11055;DHT22;5580;50.106;8.702;2023-07-22T02:36:03;17.90;99.90
11055;DHT22;5580;50.106;8.702;2023-07-22T02:38:29;17.90;99.90
11055;DHT22;5580;50.106;8.702;2023-07-22T02:40:55;17.90;99.90
11055;DHT22;5580;50.106;8.702;2023-07-22T02:43:20;17.90;99.90
11055;DHT22;5580;50.106;8.702;2023-07-22T02:45:46;17.80;99.90
11055;DHT22;5580;50.106;8.702;2023-07-22T02:48:12;17.80;99.90
11055;DHT22;5580;50.106;8.702;2023-07-22T02:50:38;17.70;99.90
11055;DHT22;5580;50.106;8.702;2023-07-22T02:53:03;17.70;99.90
11055;DHT22;5580;50.106;8.702;2023-07-22T02:55:29;17.60;99.90
11055;DHT22;5580;50.106;8.702;2023-07-22T02:57:55;17.60;99.90
11055;DHT22;5580;50.106;8.702;2023-07-22T03:00:21;17.60;99.90
11055;DHT22;5580;50.106;8.702;2023-07-22T03:02:54;17.50;99.90
11055;DHT22;5580;50.106;8.702;2023-07-22T03:05:26;17.50;99.90
11055;DHT22;5580;50.106;8.702;2023-07-22T03:07:53;17.40;99.90
11055;DHT22;5580;50.106;8.702;2023-07-22T03:10:19;17.50;99.90
11055;DHT22;5580;50.106;8.702;2023-07-22T03:12:44;17.40;99.90
11055;DHT22;5580;50.106;8.702;2023-07-22T03:15:10;17.40;99.90
11055;DHT22;5580;50.106;8.702;2023-07-22T03:17:38;17.20;99.90
11055;DHT22;5580;50.106;8.702;2023-07-22T03:20:05;17.10;99.90
11055;DHT22;5580;50.106;8.702;2023-07-22T03:22:40;17.10;99.90
11055;DHT22;5580;50.106;8.702;2023-07-22T03:25:06;17.00;99.90
11055;DHT22;5580;50.106;8.702;2023-07-22T03:27:34;17.10;99.90
11055;DHT22;5580;50.106;8.702;2023-07-22T03:30:00;17.10;99.90
11055;DHT22;5580;50.106;8.702;2023-07-22T03:32:26;17.20;99.90
11055;DHT22;5580;50.106;8.702;2023-07-22T03:34:52;17.30;99.90
11055;DHT22;5580;50.106;8.702;2023-07-22T03:37:17;17.30;99.90
11055;DHT22;5580;50.106;8.702;2023-07-22T03:39:45;17.20;99.90
11055;DHT22;5580;50.106;8.702;2023-07-22T03:42:10;17.20;99.90
11055;DHT22;5580;50.106;8.702;2023-07-22T03:44:36;17.10;99.90
11055;DHT22;5580;50.106;8.702;2023-07-22T03:47:01;17.10;99.90
11055;DHT22;5580;50.106;8.702;2023-07-22T03:49:27;17.10;99.90
11055;DHT22;5580;50.106;8.702;2023-07-22T03:51:52;17.20;99.90
11055;DHT22;5580;50.106;8.702;2023-07-22T03:54:18;17.20;99.90
11055;DHT22;5580;50.106;8.702;2023-07-22T03:56:43;17.20;99.90
11055;DHT22;5580;50.106;8.702;2023-07-22T03:59:09;17.30;99.90
11055;DHT22;5580;50.106;8.702;2023-07-22T04:01:35;17.30;99.90
11055;DHT22;5580;50.106;8.702;2023-07-22T04:04:00;17.30;99.90
11055;DHT22;5580;50.106;8.702;2023-07-22T04:06:26;17.20;99.90
11055;DHT22;5580;50.106;8.702;2023-07-22T04:08:51;17.20;99.90
11055;DHT22;5580;50.106;8.702;2023-07-22T04:11:17;17.20;99.90
11055;DHT22;5580;50.106;8.702;2023-07-22T04:13:43;17.20;99.90
11055;DHT22;5580;50.106;8.702;2023-07-22T04:16:08;17.20;99.90
11055;DHT22;5580;50.106;8.702;2023-07-22T04:18:34;17.20;99.90
11055;DHT22;5580;50.106;8.702;2023-07-22T04:21:00;17.20;99.90
11055;DHT22;5580;50.106;8.702;2023-07-22T04:23:26;17.20;99.90
11055;DHT22;5580;50.106;8.702;2023-07-22T04:25:52;17.20;99.90
11055;DHT22;5580;50.106;8.702;2023-07-22T04:28:18;17.20;99.90
11055;DHT22;5580;50.106;8.702;2023-07-22T04:30:55;17.20;99.90
11055;DHT22;5580;50.106;8.702;2023-07-22T04:33:21;17.20;99.90
11055;DHT22;5580;50.106;8.702;2023-07-22T04:35:46;17.20;99.90
11055;DHT22;5580;50.106;8.702;2023-07-22T04:38:12;17.20;99.90
11055;DHT22;5580;50.106;8.702;2023-07-22T04:40:42;17.20;99.90
11055;DHT22;5580;50.106;8.702;2023-07-22T04:43:07;17.10;99.90
11055;DHT22;5580;50.106;8.702;2023-07-22T04:45:33;17.10;99.90
11055;DHT22;5580;50.106;8.702;2023-07-22T04:47:59;17.10;99.90
11055;DHT22;5580;50.106;8.702;2023-07-22T04:50:25;17.20;99.90
11055;DHT22;5580;50.106;8.702;2023-07-22T04:52:51;17.30;99.90
11055;DHT22;5580;50.106;8.702;2023-07-22T04:55:17;17.30;99.90
11055;DHT22;5580;50.106;8.702;2023-07-22T04:57:42;17.20;99.90
11055;DHT22;5580;50.106;8.702;2023-07-22T05:00:11;17.30;99.90
11055;DHT22;5580;50.106;8.702;2023-07-22T05:02:45;17.20;99.90
11055;DHT22;5580;50.106;8.702;2023-07-22T05:05:12;17.20;99.90
11055;DHT22;5580;50.106;8.702;2023-07-22T05:07:38;17.20;99.90
11055;DHT22;5580;50.106;8.702;2023-07-22T05:10:03;17.30;99.90
11055;DHT22;5580;50.106;8.702;2023-07-22T05:12:29;17.40;99.90
11055;DHT22;5580;50.106;8.702;2023-07-22T05:14:55;17.70;99.90
11055;DHT22;5580;50.106;8.702;2023-07-22T05:17:20;17.90;99.90
11055;DHT22;5580;50.106;8.702;2023-07-22T05:19:46;18.20;99.90
11055;DHT22;5580;50.106;8.702;2023-07-22T05:22:14;18.30;99.90
11055;DHT22;5580;50.106;8.702;2023-07-22T05:24:39;18.30;99.90
11055;DHT22;5580;50.106;8.702;2023-07-22T05:27:05;18.40;99.90
11055;DHT22;5580;50.106;8.702;2023-07-22T05:29:31;18.40;99.90
11055;DHT22;5580;50.106;8.702;2023-07-22T05:31:56;18.50;99.90
11055;DHT22;5580;50.106;8.702;2023-07-22T05:34:22;18.60;99.90
11055;DHT22;5580;50.106;8.702;2023-07-22T05:36:48;18.60;99.90
11055;DHT22;5580;50.106;8.702;2023-07-22T05:39:13;18.70;99.90
11055;DHT22;5580;50.106;8.702;2023-07-22T05:41:39;18.70;99.90
11055;DHT22;5580;50.106;8.702;2023-07-22T05:44:04;18.60;99.90
11055;DHT22;5580;50.106;8.702;2023-07-22T05:46:30;18.60;99.90
11055;DHT22;5580;50.106;8.702;2023-07-22T05:48:56;18.70;99.90
11055;DHT22;5580;50.106;8.702;2023-07-22T05:51:21;18.80;99.90
11055;DHT22;5580;50.106;8.702;2023-07-22T05:53:48;19.00;99.90
11055;DHT22;5580;50.106;8.702;2023-07-22T05:56:13;19.00;99.90
11055;DHT22;5580;50.106;8.702;2023-07-22T05:58:39;19.10;99.90
11055;DHT22;5580;50.106;8.702;2023-07-22T06:01:04;19.20;99.90
11055;DHT22;5580;50.106;8.702;2023-07-22T06:03:30;19.30;99.90
11055;DHT22;5580;50.106;8.702;2023-07-22T06:05:56;19.30;99.90
11055;DHT22;5580;50.106;8.702;2023-07-22T06:08:21;19.40;99.90
11055;DHT22;5580;50.106;8.702;2023-07-22T06:10:47;19.60;99.90
11055;DHT22;5580;50.106;8.702;2023-07-22T06:13:13;19.60;99.90
11055;DHT22;5580;50.106;8.702;2023-07-22T06:15:38;19.60;99.90
11055;DHT22;5580;50.106;8.702;2023-07-22T06:18:04;19.60;99.90
11055;DHT22;5580;50.106;8.702;2023-07-22T06:20:34;19.70;99.90
11055;DHT22;5580;50.106;8.702;2023-07-22T06:23:01;19.90;99.90
11055;DHT22;5580;50.106;8.702;2023-07-22T06:25:26;20.00;99.90
11055;DHT22;5580;50.106;8.702;2023-07-22T06:27:52;20.00;99.90
11055;DHT22;5580;50.106;8.702;2023-07-22T06:30:19;20.10;99.90
11055;DHT22;5580;50.106;8.702;2023-07-22T06:32:45;20.10;99.90
11055;DHT22;5580;50.106;8.702;2023-07-22T06:35:10;20.10;99.90
11055;DHT22;5580;50.106;8.702;2023-07-22T06:37:36;20.00;99.90
11055;DHT22;5580;50.106;8.702;2023-07-22T06:40:02;20.00;99.90
11055;DHT22;5580;50.106;8.702;2023-07-22T06:42:29;19.90;99.90
11055;DHT22;5580;50.106;8.702;2023-07-22T06:44:55;19.90;99.90
11055;DHT22;5580;50.106;8.702;2023-07-22T06:47:21;19.90;99.90
11055;DHT22;5580;50.106;8.702;2023-07-22T06:49:46;20.00;99.90
11055;DHT22;5580;50.106;8.702;2023-07-22T06:52:12;20.10;99.90
11055;DHT22;5580;50.106;8.702;2023-07-22T06:54:37;20.10;99.90
11055;DHT22;5580;50.106;8.702;2023-07-22T06:57:03;20.10;99.90
11055;DHT22;5580;50.106;8.702;2023-07-22T06:59:31;20.10;99.90
11055;DHT22;5580;50.106;8.702;2023-07-22T07:01:57;20.00;99.90
11055;DHT22;5580;50.106;8.702;2023-07-22T07:04:22;20.00;99.90
11055;DHT22;5580;50.106;8.702;2023-07-22T07:06:49;20.00;99.90
11055;DHT22;5580;50.106;8.702;2023-07-22T07:09:14;20.00;99.90
11055;DHT22;5580;50.106;8.702;2023-07-22T07:11:40;20.10;99.90
11055;DHT22;5580;50.106;8.702;2023-07-22T07:14:06;20.00;99.90
11055;DHT22;5580;50.106;8.702;2023-07-22T07:16:32;20.00;99.90
11055;DHT22;5580;50.106;8.702;2023-07-22T07:18:58;20.10;99.90
11055;DHT22;5580;50.106;8.702;2023-07-22T07:21:24;20.20;99.90
11055;DHT22;5580;50.106;8.702;2023-07-22T07:23:51;20.20;99.90
11055;DHT22;5580;50.106;8.702;2023-07-22T07:26:17;20.30;99.90
11055;DHT22;5580;50.106;8.702;2023-07-22T07:28:43;20.30;99.90
11055;DHT22;5580;50.106;8.702;2023-07-22T07:31:09;20.40;99.90
11055;DHT22;5580;50.106;8.702;2023-07-22T07:33:35;20.50;99.90
11055;DHT22;5580;50.106;8.702;2023-07-22T07:36:01;20.50;99.90
11055;DHT22;5580;50.106;8.702;2023-07-22T07:38:26;20.60;99.90
11055;DHT22;5580;50.106;8.702;2023-07-22T07:40:57;20.70;99.90
11055;DHT22;5580;50.106;8.702;2023-07-22T07:43:23;20.80;99.90
11055;DHT22;5580;50.106;8.702;2023-07-22T07:45:49;20.80;99.90
11055;DHT22;5580;50.106;8.702;2023-07-22T07:48:14;20.90;99.90
11055;DHT22;5580;50.106;8.702;2023-07-22T07:50:41;20.90;99.90
11055;DHT22;5580;50.106;8.702;2023-07-22T07:53:07;21.00;99.90
11055;DHT22;5580;50.106;8.702;2023-07-22T07:55:32;21.00;99.90
11055;DHT22;5580;50.106;8.702;2023-07-22T07:57:58;21.10;99.90
11055;DHT22;5580;50.106;8.702;2023-07-22T08:00:24;21.10;99.90
11055;DHT22;5580;50.106;8.702;2023-07-22T08:02:50;21.20;99.90
11055;DHT22;5580;50.106;8.702;2023-07-22T08:05:15;21.30;99.90
11055;DHT22;5580;50.106;8.702;2023-07-22T08:07:41;21.30;99.90
11055;DHT22;5580;50.106;8.702;2023-07-22T08:10:07;21.40;99.90
11055;DHT22;5580;50.106;8.702;2023-07-22T08:12:33;21.40;99.90
11055;DHT22;5580;50.106;8.702;2023-07-22T08:14:59;21.40;99.90
11055;DHT22;5580;50.106;8.702;2023-07-22T08:17:25;21.40;99.90
11055;DHT22;5580;50.106;8.702;2023-07-22T08:19:51;21.20;99.90
11055;DHT22;5580;50.106;8.702;2023-07-22T08:22:16;21.20;99.90
11055;DHT22;5580;50.106;8.702;2023-07-22T08:24:43;21.20;99.90
11055;DHT22;5580;50.106;8.702;2023-07-22T08:27:08;21.20;99.90
11055;DHT22;5580;50.106;8.702;2023-07-22T08:29:34;21.30;99.90
11055;DHT22;5580;50.106;8.702;2023-07-22T08:32:00;21.40;99.90
11055;DHT22;5580;50.106;8.702;2023-07-22T08:34:25;21.50;99.90
11055;DHT22;5580;50.106;8.702;2023-07-22T08:36:51;21.60;99.90
11055;DHT22;5580;50.106;8.702;2023-07-22T08:39:18;21.70;99.90
11055;DHT22;5580;50.106;8.702;2023-07-22T08:41:48;21.80;99.90
11055;DHT22;5580;50.106;8.702;2023-07-22T08:44:19;21.90;99.90
11055;DHT22;5580;50.106;8.702;2023-07-22T08:46:46;22.00;99.90
11055;DHT22;5580;50.106;8.702;2023-07-22T08:49:15;22.10;99.90
11055;DHT22;5580;50.106;8.702;2023-07-22T08:51:41;22.10;99.90
11055;DHT22;5580;50.106;8.702;2023-07-22T08:54:07;22.20;99.90
11055;DHT22;5580;50.106;8.702;2023-07-22T08:56:34;22.30;99.90
11055;DHT22;5580;50.106;8.702;2023-07-22T08:59:00;22.40;99.90
11055;DHT22;5580;50.106;8.702;2023-07-22T09:01:26;22.50;99.90
11055;DHT22;5580;50.106;8.702;2023-07-22T09:03:53;22.50;99.90
11055;DHT22;5580;50.106;8.702;2023-07-22T09:06:19;22.60;99.90
11055;DHT22;5580;50.106;8.702;2023-07-22T09:08:46;22.70;99.90
11055;DHT22;5580;50.106;8.702;2023-07-22T09:11:12;22.80;99.90
11055;DHT22;5580;50.106;8.702;2023-07-22T09:13:39;22.80;99.90
11055;DHT22;5580;50.106;8.702;2023-07-22T09:16:06;22.90;99.90
11055;DHT22;5580;50.106;8.702;2023-07-22T09:18:35;23.00;99.90
11055;DHT22;5580;50.106;8.702;2023-07-22T09:21:01;23.00;99.90
11055;DHT22;5580;50.106;8.702;2023-07-22T09:23:37;23.00;99.90
11055;DHT22;5580;50.106;8.702;2023-07-22T09:26:13;22.90;99.90
11055;DHT22;5580;50.106;8.702;2023-07-22T09:28:54;22.90;99.90
11055;DHT22;5580;50.106;8.702;2023-07-22T09:31:22;22.80;99.90
11055;DHT22;5580;50.106;8.702;2023-07-22T09:33:48;22.70;99.90
11055;DHT22;5580;50.106;8.702;2023-07-22T09:36:13;22.70;99.90
11055;DHT22;5580;50.106;8.702;2023-07-22T09:38:39;22.60;99.90
11055;DHT22;5580;50.106;8.702;2023-07-22T09:41:05;22.60;99.90
11055;DHT22;5580;50.106;8.702;2023-07-22T09:43:31;22.50;99.90
11055;DHT22;5580;50.106;8.702;2023-07-22T09:46:09;22.50;99.90
11055;DHT22;5580;50.106;8.702;2023-07-22T09:48:42;22.50;99.90
11055;DHT22;5580;50.106;8.702;2023-07-22T09:51:12;22.50;99.90
11055;DHT22;5580;50.106;8.702;2023-07-22T09:53:44;22.50;99.90
11055;DHT22;5580;50.106;8.702;2023-07-22T09:56:09;22.40;99.90
11055;DHT22;5580;50.106;8.702;2023-07-22T09:58:35;22.40;99.90
11055;DHT22;5580;50.106;8.702;2023-07-22T10:01:02;22.40;99.90
11055;DHT22;5580;50.106;8.702;2023-07-22T10:03:31;22.40;99.90
11055;DHT22;5580;50.106;8.702;2023-07-22T10:05:59;22.40;99.90
11055;DHT22;5580;50.106;8.702;2023-07-22T10:08:26;22.40;99.90
11055;DHT22;5580;50.106;8.702;2023-07-22T10:10:56;22.40;99.90
11055;DHT22;5580;50.106;8.702;2023-07-22T10:13:24;22.50;99.90
11055;DHT22;5580;50.106;8.702;2023-07-22T10:15:50;22.60;99.90
11055;DHT22;5580;50.106;8.702;2023-07-22T10:18:16;22.60;99.90
11055;DHT22;5580;50.106;8.702;2023-07-22T10:20:43;22.60;99.90
11055;DHT22;5580;50.106;8.702;2023-07-22T10:23:09;22.60;99.90
11055;DHT22;5580;50.106;8.702;2023-07-22T10:25:39;22.60;99.90
11055;DHT22;5580;50.106;8.702;2023-07-22T10:28:06;22.60;99.90
11055;DHT22;5580;50.106;8.702;2023-07-22T10:30:33;22.50;99.90
11055;DHT22;5580;50.106;8.702;2023-07-22T10:32:58;22.50;99.90
11055;DHT22;5580;50.106;8.702;2023-07-22T10:40:51;22.50;99.90
11055;DHT22;5580;50.106;8.702;2023-07-22T10:43:18;22.50;99.90
11055;DHT22;5580;50.106;8.702;2023-07-22T10:45:53;22.50;99.90
11055;DHT22;5580;50.106;8.702;2023-07-22T10:48:19;22.60;99.90
11055;DHT22;5580;50.106;8.702;2023-07-22T10:50:52;22.60;99.90
11055;DHT22;5580;50.106;8.702;2023-07-22T11:04:23;22.60;99.90
11055;DHT22;5580;50.106;8.702;2023-07-22T11:07:03;22.60;99.90
11055;DHT22;5580;50.106;8.702;2023-07-22T11:14:26;22.70;99.90
11055;DHT22;5580;50.106;8.702;2023-07-22T11:16:52;22.70;99.90
11055;DHT22;5580;50.106;8.702;2023-07-22T11:19:22;22.80;99.90
11055;DHT22;5580;50.106;8.702;2023-07-22T11:21:53;22.80;99.90
11055;DHT22;5580;50.106;8.702;2023-07-22T11:24:19;22.80;99.90
11055;DHT22;5580;50.106;8.702;2023-07-22T11:26:46;22.90;99.90
11055;DHT22;5580;50.106;8.702;2023-07-22T11:29:12;22.90;99.90
11055;DHT22;5580;50.106;8.702;2023-07-22T11:31:40;22.90;99.90
11055;DHT22;5580;50.106;8.702;2023-07-22T11:34:11;22.90;99.90
11055;DHT22;5580;50.106;8.702;2023-07-22T11:36:37;22.90;99.90
11055;DHT22;5580;50.106;8.702;2023-07-22T11:39:08;22.90;99.90
11055;DHT22;5580;50.106;8.702;2023-07-22T11:41:35;23.00;99.90
11055;DHT22;5580;50.106;8.702;2023-07-22T11:44:02;23.00;99.90
11055;DHT22;5580;50.106;8.702;2023-07-22T11:46:35;23.00;99.90
11055;DHT22;5580;50.106;8.702;2023-07-22T11:49:00;23.00;99.90
11055;DHT22;5580;50.106;8.702;2023-07-22T11:51:26;23.10;99.90
11055;DHT22;5580;50.106;8.702;2023-07-22T11:53:53;23.10;99.90
11055;DHT22;5580;50.106;8.702;2023-07-22T11:56:24;23.10;99.90
11055;DHT22;5580;50.106;8.702;2023-07-22T11:58:54;23.00;99.90
11055;DHT22;5580;50.106;8.702;2023-07-22T12:01:20;23.10;99.90
11055;DHT22;5580;50.106;8.702;2023-07-22T12:03:45;23.00;99.90
11055;DHT22;5580;50.106;8.702;2023-07-22T12:06:12;23.10;99.90
11055;DHT22;5580;50.106;8.702;2023-07-22T12:08:49;23.20;99.90
11055;DHT22;5580;50.106;8.702;2023-07-22T12:11:18;23.20;99.90
11055;DHT22;5580;50.106;8.702;2023-07-22T12:13:44;23.30;99.90
11055;DHT22;5580;50.106;8.702;2023-07-22T12:16:12;23.30;99.90
11055;DHT22;5580;50.106;8.702;2023-07-22T12:18:46;23.30;99.90
11055;DHT22;5580;50.106;8.702;2023-07-22T12:21:13;23.30;99.70
11055;DHT22;5580;50.106;8.702;2023-07-22T12:23:39;23.30;99.70
11055;DHT22;5580;50.106;8.702;2023-07-22T12:26:06;23.30;99.60
11055;DHT22;5580;50.106;8.702;2023-07-22T12:28:32;23.30;99.90
11055;DHT22;5580;50.106;8.702;2023-07-22T12:30:57;23.30;99.90
11055;DHT22;5580;50.106;8.702;2023-07-22T12:33:24;23.30;99.90
11055;DHT22;5580;50.106;8.702;2023-07-22T12:35:50;23.30;99.90
11055;DHT22;5580;50.106;8.702;2023-07-22T12:38:16;23.30;99.90
11055;DHT22;5580;50.106;8.702;2023-07-22T12:40:41;23.40;99.90
11055;DHT22;5580;50.106;8.702;2023-07-22T12:43:07;23.40;99.90
11055;DHT22;5580;50.106;8.702;2023-07-22T12:45:33;23.40;99.80
11055;DHT22;5580;50.106;8.702;2023-07-22T12:47:59;23.50;99.90
11055;DHT22;5580;50.106;8.702;2023-07-22T12:50:25;23.50;99.90
11055;DHT22;5580;50.106;8.702;2023-07-22T12:52:50;23.50;99.90
11055;DHT22;5580;50.106;8.702;2023-07-22T12:55:16;23.50;99.70
11055;DHT22;5580;50.106;8.702;2023-07-22T12:57:41;23.50;99.90
11055;DHT22;5580;50.106;8.702;2023-07-22T13:00:07;23.50;99.50
11055;DHT22;5580;50.106;8.702;2023-07-22T13:02:37;23.60;99.60
11055;DHT22;5580;50.106;8.702;2023-07-22T13:05:03;23.60;99.70
11055;DHT22;5580;50.106;8.702;2023-07-22T13:07:29;23.60;99.70
11055;DHT22;5580;50.106;8.702;2023-07-22T13:09:54;23.60;99.40
11055;DHT22;5580;50.106;8.702;2023-07-22T13:12:22;23.60;99.50
11055;DHT22;5580;50.106;8.702;2023-07-22T13:14:47;23.60;99.80
11055;DHT22;5580;50.106;8.702;2023-07-22T13:17:13;23.60;99.80
11055;DHT22;5580;50.106;8.702;2023-07-22T13:19:39;23.60;99.70
11055;DHT22;5580;50.106;8.702;2023-07-22T13:22:04;23.60;99.90
11055;DHT22;5580;50.106;8.702;2023-07-22T13:24:30;23.60;99.90
11055;DHT22;5580;50.106;8.702;2023-07-22T13:26:55;23.70;99.90
11055;DHT22;5580;50.106;8.702;2023-07-22T13:29:21;23.70;99.80
11055;DHT22;5580;50.106;8.702;2023-07-22T13:31:46;23.70;99.80
11055;DHT22;5580;50.106;8.702;2023-07-22T13:34:12;23.70;99.70
11055;DHT22;5580;50.106;8.702;2023-07-22T13:36:37;23.70;99.70
11055;DHT22;5580;50.106;8.702;2023-07-22T13:39:03;23.70;99.70
11055;DHT22;5580;50.106;8.702;2023-07-22T13:41:29;23.70;99.70
11055;DHT22;5580;50.106;8.702;2023-07-22T13:43:54;23.70;99.90
11055;DHT22;5580;50.106;8.702;2023-07-22T13:46:20;23.70;99.80
11055;DHT22;5580;50.106;8.702;2023-07-22T13:48:45;23.80;99.60
11055;DHT22;5580;50.106;8.702;2023-07-22T13:51:11;23.80;99.80
11055;DHT22;5580;50.106;8.702;2023-07-22T13:53:37;23.80;99.60
11055;DHT22;5580;50.106;8.702;2023-07-22T13:56:02;23.80;99.70
11055;DHT22;5580;50.106;8.702;2023-07-22T13:58:28;23.80;99.70
11055;DHT22;5580;50.106;8.702;2023-07-22T14:00:54;23.80;99.20
11055;DHT22;5580;50.106;8.702;2023-07-22T14:03:19;23.80;99.70
11055;DHT22;5580;50.106;8.702;2023-07-22T14:05:45;23.80;99.10
11055;DHT22;5580;50.106;8.702;2023-07-22T14:08:11;23.80;98.80
11055;DHT22;5580;50.106;8.702;2023-07-22T14:10:37;23.90;99.10
11055;DHT22;5580;50.106;8.702;2023-07-22T14:13:02;24.00;98.70
11055;DHT22;5580;50.106;8.702;2023-07-22T14:15:28;24.00;97.90
11055;DHT22;5580;50.106;8.702;2023-07-22T14:17:53;24.10;96.50
11055;DHT22;5580;50.106;8.702;2023-07-22T14:20:19;24.10;96.00
11055;DHT22;5580;50.106;8.702;2023-07-22T14:22:45;24.10;95.40
11055;DHT22;5580;50.106;8.702;2023-07-22T14:25:11;24.20;94.50
11055;DHT22;5580;50.106;8.702;2023-07-22T14:27:39;24.30;94.00
11055;DHT22;5580;50.106;8.702;2023-07-22T14:30:06;24.30;93.80
11055;DHT22;5580;50.106;8.702;2023-07-22T14:32:31;24.20;93.20
11055;DHT22;5580;50.106;8.702;2023-07-22T14:34:57;24.20;93.20
11055;DHT22;5580;50.106;8.702;2023-07-22T14:37:23;24.20;93.10
11055;DHT22;5580;50.106;8.702;2023-07-22T14:39:49;24.30;93.40
11055;DHT22;5580;50.106;8.702;2023-07-22T14:42:15;24.30;93.30
11055;DHT22;5580;50.106;8.702;2023-07-22T14:44:40;24.30;93.00
11055;DHT22;5580;50.106;8.702;2023-07-22T14:47:06;24.30;92.90
11055;DHT22;5580;50.106;8.702;2023-07-22T14:49:32;24.30;93.00
11055;DHT22;5580;50.106;8.702;2023-07-22T14:51:57;24.30;92.70
11055;DHT22;5580;50.106;8.702;2023-07-22T14:54:23;24.30;92.90
11055;DHT22;5580;50.106;8.702;2023-07-22T14:56:49;24.40;93.20
11055;DHT22;5580;50.106;8.702;2023-07-22T14:59:15;24.30;92.80
11055;DHT22;5580;50.106;8.702;2023-07-22T15:01:41;24.30;92.50
11055;DHT22;5580;50.106;8.702;2023-07-22T15:04:08;24.40;92.50
11055;DHT22;5580;50.106;8.702;2023-07-22T15:06:33;24.40;92.80
11055;DHT22;5580;50.106;8.702;2023-07-22T15:09:00;24.40;92.30
11055;DHT22;5580;50.106;8.702;2023-07-22T15:11:26;24.50;92.10
11055;DHT22;5580;50.106;8.702;2023-07-22T15:13:52;24.50;91.90
11055;DHT22;5580;50.106;8.702;2023-07-22T15:16:18;24.50;91.90
11055;DHT22;5580;50.106;8.702;2023-07-22T15:18:43;24.60;91.40
11055;DHT22;5580;50.106;8.702;2023-07-22T15:21:09;24.60;90.80
11055;DHT22;5580;50.106;8.702;2023-07-22T15:23:34;24.60;90.70
11055;DHT22;5580;50.106;8.702;2023-07-22T15:26:00;24.60;91.00
11055;DHT22;5580;50.106;8.702;2023-07-22T15:28:26;24.60;90.90
11055;DHT22;5580;50.106;8.702;2023-07-22T15:30:53;24.60;90.80
11055;DHT22;5580;50.106;8.702;2023-07-22T15:33:19;24.60;90.00
11055;DHT22;5580;50.106;8.702;2023-07-22T15:35:47;24.60;90.00
11055;DHT22;5580;50.106;8.702;2023-07-22T15:38:12;24.70;89.90
11055;DHT22;5580;50.106;8.702;2023-07-22T15:40:38;24.70;89.30
11055;DHT22;5580;50.106;8.702;2023-07-22T15:43:04;24.70;88.40
11055;DHT22;5580;50.106;8.702;2023-07-22T15:45:29;24.70;89.10
11055;DHT22;5580;50.106;8.702;2023-07-22T15:47:55;24.70;87.60
11055;DHT22;5580;50.106;8.702;2023-07-22T15:50:21;24.80;88.10
11055;DHT22;5580;50.106;8.702;2023-07-22T15:52:46;24.80;88.90
11055;DHT22;5580;50.106;8.702;2023-07-22T15:55:12;24.80;88.30
11055;DHT22;5580;50.106;8.702;2023-07-22T15:57:38;24.80;87.70
11055;DHT22;5580;50.106;8.702;2023-07-22T16:00:04;24.80;88.30